Svitzer Leixoes — CSXW6 — position and weather

sailwx.info

Track history (hours):
 
Tides and Currents Weather Stations Pressure Air Temp Water Temp Dewpoint Dewpoint Depression Visibility Wind Speed Wind Dir Waves Ship Positions

Svitzer Leixoes

Last reported at 2015-Feb-01 05:32 UTC. Time now 2015-Feb-01 05:40 UTC.
Position N 38°42' W 009°10'.

Length 28 m; draft 3.9 m.

Type: Towing. MMSI: 263622000.

Date/timePositionNaut miles runAvg speedWind from/ knotsBaromVisibWave heightAir tempDewpointWater temp
2015-Feb-01 05:32N 38°42' W 009°10'0 0.0
2015-Feb-01 04:32N 38°42' W 009°10'0 0.0
2015-Feb-01 03:33N 38°42' W 009°10'0 0.0
2015-Feb-01 02:33N 38°42' W 009°10'0 0.0
2015-Feb-01 01:33N 38°42' W 009°10'0 0.0
2015-Feb-01 00:33N 38°42' W 009°10'0 0.0
2015-Jan-31 23:33N 38°42' W 009°10'0 0.0
2015-Jan-31 22:30N 38°42' W 009°10'0 0.0
2015-Jan-31 21:33N 38°42' W 009°10'0 0.0
2015-Jan-31 20:32N 38°42' W 009°10'2 1.8
2015-Jan-31 19:33N 38°41' W 009°08'0 0.4
2015-Jan-31 18:32N 38°41' W 009°07'2 2.2
2015-Jan-31 17:33N 38°42' W 009°10'0 0.0
2015-Jan-31 16:32N 38°42' W 009°10'0 0.0
2015-Jan-31 15:33N 38°42' W 009°10'0 0.0
2015-Jan-31 14:33N 38°42' W 009°10'0 0.0
2015-Jan-31 13:30N 38°42' W 009°10'0 0.0
2015-Jan-31 12:33N 38°42' W 009°10'0 0.0
2015-Jan-31 11:32N 38°42' W 009°10'0 0.0
2015-Jan-31 10:33N 38°42' W 009°10'0 0.0
2015-Jan-31 09:32N 38°42' W 009°10'1 0.8
2015-Jan-31 08:33N 38°41' W 009°10'1 0.8
2015-Jan-31 07:33N 38°42' W 009°10'0 0.0
2015-Jan-31 06:33N 38°42' W 009°10'0 0.0
2015-Jan-31 05:33N 38°42' W 009°10'0 0.0
2015-Jan-31 04:32N 38°42' W 009°10'0 0.0
2015-Jan-31 03:33N 38°42' W 009°10'0 0.0
2015-Jan-31 02:32N 38°42' W 009°10'0 0.0
2015-Jan-31 01:33N 38°42' W 009°10'0 0.0
2015-Jan-31 00:31N 38°42' W 009°10'0 0.0
2015-Jan-30 23:33N 38°42' W 009°10'0 0.0
2015-Jan-30 22:33N 38°42' W 009°10'0 0.0
2015-Jan-30 21:32N 38°42' W 009°10'0 0.0
2015-Jan-30 20:31N 38°42' W 009°10'0 0.0
2015-Jan-30 19:27N 38°42' W 009°10'0 0.0
2015-Jan-30 18:33N 38°42' W 009°10'0 0.5
2015-Jan-30 17:33N 38°42' W 009°09'0 0.5
2015-Jan-30 16:33N 38°42' W 009°10'0 0.0
2015-Jan-30 15:32N 38°42' W 009°10'0 0.0
2015-Jan-30 14:33N 38°42' W 009°10'0 0.0
2015-Jan-30 13:32N 38°42' W 009°10'1 1.4
2015-Jan-30 12:33N 38°42' W 009°08'1 0.7
2015-Jan-30 11:33N 38°43' W 009°07'2 1.9
2015-Jan-30 10:33N 38°42' W 009°10'2 1.9
2015-Jan-30 09:33N 38°40' W 009°09'0 0.4
2015-Jan-30 08:32N 38°40' W 009°09'2 1.6
2015-Jan-30 07:33N 38°41' W 009°08'2 1.7
2015-Jan-30 06:33N 38°43' W 009°07'2 2.4
2015-Jan-30 05:33N 38°42' W 009°10'0 0.0
2015-Jan-30 04:33N 38°42' W 009°10'0 0.0
2015-Jan-30 03:33N 38°42' W 009°10'1 1.1
2015-Jan-30 02:33N 38°41' W 009°11'1 1.1
2015-Jan-30 01:33N 38°42' W 009°10'0 0.0
2015-Jan-30 00:33N 38°42' W 009°10'0 0.0
2015-Jan-29 23:33N 38°42' W 009°10'0 0.0
2015-Jan-29 22:33N 38°42' W 009°10'0 0.0
2015-Jan-29 21:31N 38°42' W 009°10'0 0.0
2015-Jan-29 20:33N 38°42' W 009°10'0 0.0
2015-Jan-29 19:33N 38°42' W 009°10'0 0.0
2015-Jan-29 18:31N 38°42' W 009°10'0 0.0
2015-Jan-29 17:30N 38°42' W 009°10'0 0.0
2015-Jan-29 16:31N 38°42' W 009°10'0 0.0
2015-Jan-29 15:31N 38°42' W 009°10'0 0.0
2015-Jan-29 14:31N 38°42' W 009°10'0 0.0
2015-Jan-29 13:32N 38°42' W 009°10'0 0.0
2015-Jan-29 12:32N 38°42' W 009°10'0 0.0
2015-Jan-29 11:33N 38°42' W 009°10'2 1.8
2015-Jan-29 10:33N 38°42' W 009°07'1 1.0
2015-Jan-29 09:33N 38°42' W 009°09'1 0.8
2015-Jan-29 08:31N 38°42' W 009°10'0 0.0
2015-Jan-29 07:31N 38°42' W 009°10'0 0.1
2015-Jan-29 06:33N 38°42' W 009°10'1 1.0
2015-Jan-29 05:33N 38°42' W 009°11'1 1.0
2015-Jan-29 04:33N 38°42' W 009°10'0 0.0
2015-Jan-29 03:33N 38°42' W 009°10'0 0.0
2015-Jan-29 02:33N 38°42' W 009°10'0 0.0
2015-Jan-29 01:33N 38°42' W 009°10'0 0.0
2015-Jan-29 00:33N 38°42' W 009°10'0 0.0
2015-Jan-28 23:29N 38°42' W 009°10'0 0.0
2015-Jan-28 22:32N 38°42' W 009°10'0 0.3
2015-Jan-28 21:33N 38°42' W 009°10'0 0.3
2015-Jan-28 20:33N 38°42' W 009°10'3 3.3
2015-Jan-28 19:31N 38°44' W 009°06'3 3.5
2015-Jan-28 18:32N 38°42' W 009°10'0 0.0
2015-Jan-28 17:33N 38°42' W 009°10'2 2.2
2015-Jan-28 16:33N 38°40' W 009°09'0 0.3
2015-Jan-28 15:28N 38°40' W 009°09'2 1.8
2015-Jan-28 14:33N 38°42' W 009°09'0 0.4
2015-Jan-28 13:33N 38°42' W 009°10'0 0.0
2015-Jan-28 12:33N 38°42' W 009°10'0 0.0
2015-Jan-28 11:33N 38°42' W 009°10'0 0.0
2015-Jan-28 10:33N 38°42' W 009°10'2 1.9
2015-Jan-28 09:33N 38°41' W 009°08'2 1.7
2015-Jan-28 08:30N 38°42' W 009°10'0 0.0
2015-Jan-28 07:32N 38°42' W 009°10'1 1.3
2015-Jan-28 06:33N 38°42' W 009°11'1 1.3
2015-Jan-28 05:33N 38°42' W 009°10'0 0.0
2015-Jan-28 04:31N 38°42' W 009°10'0 0.0
2015-Jan-28 03:33N 38°42' W 009°10'3 2.0
2015-Jan-28 02:13N 38°43' W 009°07'2 3.1
2015-Jan-28 01:32N 38°42' W 009°09'1 0.8
2015-Jan-28 00:32N 38°42' W 009°10'2 1.7
2015-Jan-27 23:31N 38°41' W 009°11'1 1.1
2015-Jan-27 22:33N 38°42' W 009°10'1 0.7
2015-Jan-27 21:32N 38°42' W 009°10'1 0.9
2015-Jan-27 20:33N 38°42' W 009°11'1 0.8
2015-Jan-27 19:31N 38°42' W 009°10'0 0.0
2015-Jan-27 18:30N 38°42' W 009°10'0 0.0
2015-Jan-27 17:33N 38°42' W 009°10'0 0.3
2015-Jan-27 16:33N 38°42' W 009°09'1 1.5
2015-Jan-27 15:33N 38°42' W 009°07'2 1.7
2015-Jan-27 14:31N 38°42' W 009°10'0 0.0
2015-Jan-27 13:33N 38°42' W 009°10'0 0.0
2015-Jan-27 12:32N 38°42' W 009°10'0 0.0
2015-Jan-27 11:33N 38°42' W 009°10'0 0.0
2015-Jan-27 10:33N 38°42' W 009°10'0 0.0
2015-Jan-27 09:33N 38°42' W 009°10'0 0.0
2015-Jan-27 08:32N 38°42' W 009°10'0 0.0
2015-Jan-27 07:33N 38°42' W 009°10'0 0.0
2015-Jan-27 06:33N 38°42' W 009°10'0 0.0
2015-Jan-27 05:32N 38°42' W 009°10'0 0.0
2015-Jan-27 04:33N 38°42' W 009°10'0 0.0
2015-Jan-27 03:33N 38°42' W 009°10'0 0.2
2015-Jan-27 02:33N 38°42' W 009°10'1 0.8
2015-Jan-27 01:33N 38°42' W 009°11'1 0.5
2015-Jan-27 00:33N 38°42' W 009°10'1 0.5
2015-Jan-26 23:33N 38°42' W 009°10'0 0.0
2015-Jan-26 22:33N 38°42' W 009°10'0 0.0
2015-Jan-26 21:33N 38°42' W 009°10'0 0.0
2015-Jan-26 20:31N 38°42' W 009°10'0 0.0
2015-Jan-26 19:33N 38°42' W 009°10'0 0.0
2015-Jan-26 18:31N 38°42' W 009°10'0 0.0
2015-Jan-26 17:33N 38°42' W 009°10'0 0.0
2015-Jan-26 16:31N 38°42' W 009°10'0 0.0
2015-Jan-26 15:33N 38°42' W 009°10'0 0.0
2015-Jan-26 14:33N 38°42' W 009°10'0 0.0
2015-Jan-26 13:30N 38°42' W 009°10'0 0.0
2015-Jan-26 12:33N 38°42' W 009°10'0 0.0
2015-Jan-26 11:33N 38°42' W 009°10'0 0.0
2015-Jan-26 10:33N 38°42' W 009°10'0 0.0
2015-Jan-26 09:32N 38°42' W 009°10'0 0.0
2015-Jan-26 08:33N 38°42' W 009°10'0 0.0
2015-Jan-26 07:33N 38°42' W 009°10'0 0.0
2015-Jan-26 06:33N 38°42' W 009°10'0 0.0
2015-Jan-26 05:33N 38°42' W 009°10'0 0.0
2015-Jan-26 04:33N 38°42' W 009°10'0 0.0
2015-Jan-26 03:33N 38°42' W 009°10'0 0.0
2015-Jan-26 02:33N 38°42' W 009°10'0 0.0
2015-Jan-26 01:33N 38°42' W 009°10'0 0.0
2015-Jan-26 00:33N 38°42' W 009°10'0 0.0
2015-Jan-25 23:33N 38°42' W 009°10'0 0.0
2015-Jan-25 22:33N 38°42' W 009°10'0 0.0
2015-Jan-25 21:33N 38°42' W 009°10'0 0.0
2015-Jan-25 20:33N 38°42' W 009°10'0 0.0
2015-Jan-25 19:33N 38°42' W 009°10'0 0.0
2015-Jan-25 18:33N 38°42' W 009°10'0 0.1
2015-Jan-25 17:33N 38°42' W 009°10'0 0.1
2015-Jan-25 16:33N 38°42' W 009°10'0 0.0
2015-Jan-25 15:33N 38°42' W 009°10'0 0.0
2015-Jan-25 14:32N 38°42' W 009°10'3 2.8
2015-Jan-25 13:33N 38°41' W 009°07'1 1.0
2015-Jan-25 12:33N 38°41' W 009°08'2 1.7
2015-Jan-25 11:33N 38°42' W 009°10'0 0.0
2015-Jan-25 10:31N 38°42' W 009°10'0 0.0
2015-Jan-25 09:33N 38°42' W 009°10'0 0.0
2015-Jan-25 08:33N 38°42' W 009°10'0 0.0
2015-Jan-25 07:33N 38°42' W 009°10'0 0.0
2015-Jan-25 06:33N 38°42' W 009°10'0 0.0
2015-Jan-25 05:33N 38°42' W 009°10'0 0.0
2015-Jan-25 04:30N 38°42' W 009°10'0 0.0
2015-Jan-25 03:33N 38°42' W 009°10'0 0.0
2015-Jan-25 02:32N 38°42' W 009°10'0 0.0
2015-Jan-25 01:33N 38°42' W 009°10'0 0.0
2015-Jan-25 00:33N 38°42' W 009°10'0 0.0
2015-Jan-24 23:32N 38°42' W 009°10'0 0.0
2015-Jan-24 22:31N 38°42' W 009°10'3 3.6
2015-Jan-24 21:32N 38°44' W 009°06'3 2.6
2015-Jan-24 20:34N 38°42' W 009°08'1 1.0
2015-Jan-24 19:28N 38°42' W 009°10'0 0.0
2015-Jan-24 18:34N 38°42' W 009°10'0 0.0
2015-Jan-24 17:33N 38°42' W 009°10'0 0.0
2015-Jan-24 16:33N 38°42' W 009°10'0 0.0
2015-Jan-24 15:34N 38°42' W 009°10'0 0.0
2015-Jan-24 14:33N 38°42' W 009°10'2 2.3
2015-Jan-24 13:32N 38°43' W 009°07'1 1.0
2015-Jan-24 12:33N 38°42' W 009°08'4 3.8
2015-Jan-24 11:34N 38°41' W 009°12'2 1.5
2015-Jan-24 10:32N 38°41' W 009°14'0 0.2
2015-Jan-24 09:32N 38°41' W 009°14'4 4.3
2015-Jan-24 08:33N 38°42' W 009°09'0 0.2
2015-Jan-24 07:33N 38°42' W 009°10'0 0.0
2015-Jan-24 06:31N 38°42' W 009°10'0 0.0
2015-Jan-24 05:33N 38°42' W 009°10'0 0.0
2015-Jan-24 04:32N 38°42' W 009°10'0 0.0
2015-Jan-24 03:33N 38°42' W 009°10'0 0.0
2015-Jan-24 02:32N 38°42' W 009°10'3 3.2
2015-Jan-24 01:33N 38°41' W 009°13'6 5.5
2015-Jan-24 00:29N 38°43' W 009°07'2 1.9
2015-Jan-23 23:33N 38°42' W 009°08'1 1.1
2015-Jan-23 22:31N 38°42' W 009°10'0 0.0
2015-Jan-23 21:19N 38°42' W 009°10'0 0.0
2015-Jan-23 20:33N 38°42' W 009°10'0 0.0
2015-Jan-23 19:29N 38°42' W 009°10'0 0.0
2015-Jan-23 18:32N 38°42' W 009°10'2 1.6
2015-Jan-23 17:33N 38°41' W 009°11'1 1.2
2015-Jan-23 16:33N 38°41' W 009°12'2 2.2
2015-Jan-23 15:33N 38°42' W 009°10'0 0.0
2015-Jan-23 14:32N 38°42' W 009°10'0 0.0
2015-Jan-23 13:33N 38°42' W 009°10'0 0.4
2015-Jan-23 12:30N 38°42' W 009°09'0 0.5
2015-Jan-23 11:33N 38°42' W 009°10'0 0.0
2015-Jan-23 10:33N 38°42' W 009°10'0 0.0
2015-Jan-23 09:33N 38°42' W 009°10'0 0.0
2015-Jan-23 08:33N 38°42' W 009°10'0 0.0
2015-Jan-23 07:33N 38°42' W 009°10'2 1.7
2015-Jan-23 06:33N 38°41' W 009°08'2 1.7
2015-Jan-23 05:33N 38°42' W 009°10'0 0.0
2015-Jan-23 04:33N 38°42' W 009°10'0 0.0
2015-Jan-23 03:31N 38°42' W 009°10'0 0.0
2015-Jan-23 02:33N 38°42' W 009°10'0 0.0
2015-Jan-23 01:33N 38°42' W 009°10'0 0.0
2015-Jan-23 00:33N 38°42' W 009°10'0 0.0
2015-Jan-22 23:30N 38°42' W 009°10'0 0.0
2015-Jan-22 22:33N 38°42' W 009°10'0 0.0
2015-Jan-22 21:32N 38°42' W 009°10'0 0.0
2015-Jan-22 20:30N 38°42' W 009°10'0 0.0
2015-Jan-22 19:33N 38°42' W 009°10'0 0.0
2015-Jan-22 18:33N 38°42' W 009°10'3 2.8
2015-Jan-22 17:33N 38°41' W 009°13'1 0.7
2015-Jan-22 16:33N 38°41' W 009°12'2 1.9
2015-Jan-22 15:24N 38°42' W 009°10'0 0.0
2015-Jan-22 14:33N 38°42' W 009°10'0 0.0
2015-Jan-22 13:30N 38°42' W 009°10'0 0.0
2015-Jan-22 12:33N 38°42' W 009°10'2 1.9
2015-Jan-22 11:32N 38°40' W 009°09'0 0.2
2015-Jan-22 10:33N 38°40' W 009°09'2 2.1
2015-Jan-22 09:33N 38°42' W 009°10'0 0.0
2015-Jan-22 08:33N 38°42' W 009°10'1 0.8
2015-Jan-22 07:33N 38°42' W 009°09'1 0.8
2015-Jan-22 06:31N 38°42' W 009°10'  
Track history (hours):
 
Tides and Currents Weather Stations Pressure Air Temp Water Temp Dewpoint Dewpoint Depression Visibility Wind Speed Wind Dir Waves Ship Positions

Svitzer Leixoes

Last reported at 2015-Feb-01 05:32 UTC. Time now 2015-Feb-01 05:40 UTC.
Position N 38°42' W 009°10'.

Length 28 m; draft 3.9 m.

Type: Towing. MMSI: 263622000.

Date/timePositionNaut miles runAvg speedWind from/ knotsBaromVisibWave heightAir tempDewpointWater temp
2015-Feb-01 05:32N 38°42' W 009°10'0 0.0
2015-Feb-01 04:32N 38°42' W 009°10'0 0.0
2015-Feb-01 03:33N 38°42' W 009°10'0 0.0
2015-Feb-01 02:33N 38°42' W 009°10'0 0.0
2015-Feb-01 01:33N 38°42' W 009°10'0 0.0
2015-Feb-01 00:33N 38°42' W 009°10'0 0.0
2015-Jan-31 23:33N 38°42' W 009°10'0 0.0
2015-Jan-31 22:30N 38°42' W 009°10'0 0.0
2015-Jan-31 21:33N 38°42' W 009°10'0 0.0
2015-Jan-31 20:32N 38°42' W 009°10'2 1.8
2015-Jan-31 19:33N 38°41' W 009°08'0 0.4
2015-Jan-31 18:32N 38°41' W 009°07'2 2.2
2015-Jan-31 17:33N 38°42' W 009°10'0 0.0
2015-Jan-31 16:32N 38°42' W 009°10'0 0.0
2015-Jan-31 15:33N 38°42' W 009°10'0 0.0
2015-Jan-31 14:33N 38°42' W 009°10'0 0.0
2015-Jan-31 13:30N 38°42' W 009°10'0 0.0
2015-Jan-31 12:33N 38°42' W 009°10'0 0.0
2015-Jan-31 11:32N 38°42' W 009°10'0 0.0
2015-Jan-31 10:33N 38°42' W 009°10'0 0.0
2015-Jan-31 09:32N 38°42' W 009°10'1 0.8
2015-Jan-31 08:33N 38°41' W 009°10'1 0.8
2015-Jan-31 07:33N 38°42' W 009°10'0 0.0
2015-Jan-31 06:33N 38°42' W 009°10'0 0.0
2015-Jan-31 05:33N 38°42' W 009°10'0 0.0
2015-Jan-31 04:32N 38°42' W 009°10'0 0.0
2015-Jan-31 03:33N 38°42' W 009°10'0 0.0
2015-Jan-31 02:32N 38°42' W 009°10'0 0.0
2015-Jan-31 01:33N 38°42' W 009°10'0 0.0
2015-Jan-31 00:31N 38°42' W 009°10'0 0.0
2015-Jan-30 23:33N 38°42' W 009°10'0 0.0
2015-Jan-30 22:33N 38°42' W 009°10'0 0.0
2015-Jan-30 21:32N 38°42' W 009°10'0 0.0
2015-Jan-30 20:31N 38°42' W 009°10'0 0.0
2015-Jan-30 19:27N 38°42' W 009°10'0 0.0
2015-Jan-30 18:33N 38°42' W 009°10'0 0.5
2015-Jan-30 17:33N 38°42' W 009°09'0 0.5
2015-Jan-30 16:33N 38°42' W 009°10'0 0.0
2015-Jan-30 15:32N 38°42' W 009°10'0 0.0
2015-Jan-30 14:33N 38°42' W 009°10'0 0.0
2015-Jan-30 13:32N 38°42' W 009°10'1 1.4
2015-Jan-30 12:33N 38°42' W 009°08'1 0.7
2015-Jan-30 11:33N 38°43' W 009°07'2 1.9
2015-Jan-30 10:33N 38°42' W 009°10'2 1.9
2015-Jan-30 09:33N 38°40' W 009°09'0 0.4
2015-Jan-30 08:32N 38°40' W 009°09'2 1.6
2015-Jan-30 07:33N 38°41' W 009°08'2 1.7
2015-Jan-30 06:33N 38°43' W 009°07'2 2.4
2015-Jan-30 05:33N 38°42' W 009°10'0 0.0
2015-Jan-30 04:33N 38°42' W 009°10'0 0.0
2015-Jan-30 03:33N 38°42' W 009°10'1 1.1
2015-Jan-30 02:33N 38°41' W 009°11'1 1.1
2015-Jan-30 01:33N 38°42' W 009°10'0 0.0
2015-Jan-30 00:33N 38°42' W 009°10'0 0.0
2015-Jan-29 23:33N 38°42' W 009°10'0 0.0
2015-Jan-29 22:33N 38°42' W 009°10'0 0.0
2015-Jan-29 21:31N 38°42' W 009°10'0 0.0
2015-Jan-29 20:33N 38°42' W 009°10'0 0.0
2015-Jan-29 19:33N 38°42' W 009°10'0 0.0
2015-Jan-29 18:31N 38°42' W 009°10'0 0.0
2015-Jan-29 17:30N 38°42' W 009°10'0 0.0
2015-Jan-29 16:31N 38°42' W 009°10'0 0.0
2015-Jan-29 15:31N 38°42' W 009°10'0 0.0
2015-Jan-29 14:31N 38°42' W 009°10'0 0.0
2015-Jan-29 13:32N 38°42' W 009°10'0 0.0
2015-Jan-29 12:32N 38°42' W 009°10'0 0.0
2015-Jan-29 11:33N 38°42' W 009°10'2 1.8
2015-Jan-29 10:33N 38°42' W 009°07'1 1.0
2015-Jan-29 09:33N 38°42' W 009°09'1 0.8
2015-Jan-29 08:31N 38°42' W 009°10'0 0.0
2015-Jan-29 07:31N 38°42' W 009°10'0 0.1
2015-Jan-29 06:33N 38°42' W 009°10'1 1.0
2015-Jan-29 05:33N 38°42' W 009°11'1 1.0
2015-Jan-29 04:33N 38°42' W 009°10'0 0.0
2015-Jan-29 03:33N 38°42' W 009°10'0 0.0
2015-Jan-29 02:33N 38°42' W 009°10'0 0.0
2015-Jan-29 01:33N 38°42' W 009°10'0 0.0
2015-Jan-29 00:33N 38°42' W 009°10'0 0.0
2015-Jan-28 23:29N 38°42' W 009°10'0 0.0
2015-Jan-28 22:32N 38°42' W 009°10'0 0.3
2015-Jan-28 21:33N 38°42' W 009°10'0 0.3
2015-Jan-28 20:33N 38°42' W 009°10'3 3.3
2015-Jan-28 19:31N 38°44' W 009°06'3 3.5
2015-Jan-28 18:32N 38°42' W 009°10'0 0.0
2015-Jan-28 17:33N 38°42' W 009°10'2 2.2
2015-Jan-28 16:33N 38°40' W 009°09'0 0.3
2015-Jan-28 15:28N 38°40' W 009°09'2 1.8
2015-Jan-28 14:33N 38°42' W 009°09'0 0.4
2015-Jan-28 13:33N 38°42' W 009°10'0 0.0
2015-Jan-28 12:33N 38°42' W 009°10'0 0.0
2015-Jan-28 11:33N 38°42' W 009°10'0 0.0
2015-Jan-28 10:33N 38°42' W 009°10'2 1.9
2015-Jan-28 09:33N 38°41' W 009°08'2 1.7
2015-Jan-28 08:30N 38°42' W 009°10'0 0.0
2015-Jan-28 07:32N 38°42' W 009°10'1 1.3
2015-Jan-28 06:33N 38°42' W 009°11'1 1.3
2015-Jan-28 05:33N 38°42' W 009°10'0 0.0
2015-Jan-28 04:31N 38°42' W 009°10'0 0.0
2015-Jan-28 03:33N 38°42' W 009°10'3 2.0
2015-Jan-28 02:13N 38°43' W 009°07'2 3.1
2015-Jan-28 01:32N 38°42' W 009°09'1 0.8
2015-Jan-28 00:32N 38°42' W 009°10'2 1.7
2015-Jan-27 23:31N 38°41' W 009°11'1 1.1
2015-Jan-27 22:33N 38°42' W 009°10'1 0.7
2015-Jan-27 21:32N 38°42' W 009°10'1 0.9
2015-Jan-27 20:33N 38°42' W 009°11'1 0.8
2015-Jan-27 19:31N 38°42' W 009°10'0 0.0
2015-Jan-27 18:30N 38°42' W 009°10'0 0.0
2015-Jan-27 17:33N 38°42' W 009°10'0 0.3
2015-Jan-27 16:33N 38°42' W 009°09'1 1.5
2015-Jan-27 15:33N 38°42' W 009°07'2 1.7
2015-Jan-27 14:31N 38°42' W 009°10'0 0.0
2015-Jan-27 13:33N 38°42' W 009°10'0 0.0
2015-Jan-27 12:32N 38°42' W 009°10'0 0.0
2015-Jan-27 11:33N 38°42' W 009°10'0 0.0
2015-Jan-27 10:33N 38°42' W 009°10'0 0.0
2015-Jan-27 09:33N 38°42' W 009°10'0 0.0
2015-Jan-27 08:32N 38°42' W 009°10'0 0.0
2015-Jan-27 07:33N 38°42' W 009°10'0 0.0
2015-Jan-27 06:33N 38°42' W 009°10'0 0.0
2015-Jan-27 05:32N 38°42' W 009°10'0 0.0
2015-Jan-27 04:33N 38°42' W 009°10'0 0.0
2015-Jan-27 03:33N 38°42' W 009°10'0 0.2
2015-Jan-27 02:33N 38°42' W 009°10'1 0.8
2015-Jan-27 01:33N 38°42' W 009°11'1 0.5
2015-Jan-27 00:33N 38°42' W 009°10'1 0.5
2015-Jan-26 23:33N 38°42' W 009°10'0 0.0
2015-Jan-26 22:33N 38°42' W 009°10'0 0.0
2015-Jan-26 21:33N 38°42' W 009°10'0 0.0
2015-Jan-26 20:31N 38°42' W 009°10'0 0.0
2015-Jan-26 19:33N 38°42' W 009°10'0 0.0
2015-Jan-26 18:31N 38°42' W 009°10'0 0.0
2015-Jan-26 17:33N 38°42' W 009°10'0 0.0
2015-Jan-26 16:31N 38°42' W 009°10'0 0.0
2015-Jan-26 15:33N 38°42' W 009°10'0 0.0
2015-Jan-26 14:33N 38°42' W 009°10'0 0.0
2015-Jan-26 13:30N 38°42' W 009°10'0 0.0
2015-Jan-26 12:33N 38°42' W 009°10'0 0.0
2015-Jan-26 11:33N 38°42' W 009°10'0 0.0
2015-Jan-26 10:33N 38°42' W 009°10'0 0.0
2015-Jan-26 09:32N 38°42' W 009°10'0 0.0
2015-Jan-26 08:33N 38°42' W 009°10'0 0.0
2015-Jan-26 07:33N 38°42' W 009°10'0 0.0
2015-Jan-26 06:33N 38°42' W 009°10'0 0.0
2015-Jan-26 05:33N 38°42' W 009°10'0 0.0
2015-Jan-26 04:33N 38°42' W 009°10'0 0.0
2015-Jan-26 03:33N 38°42' W 009°10'0 0.0
2015-Jan-26 02:33N 38°42' W 009°10'0 0.0
2015-Jan-26 01:33N 38°42' W 009°10'0 0.0
2015-Jan-26 00:33N 38°42' W 009°10'0 0.0
2015-Jan-25 23:33N 38°42' W 009°10'0 0.0
2015-Jan-25 22:33N 38°42' W 009°10'0 0.0
2015-Jan-25 21:33N 38°42' W 009°10'0 0.0
2015-Jan-25 20:33N 38°42' W 009°10'0 0.0
2015-Jan-25 19:33N 38°42' W 009°10'0 0.0
2015-Jan-25 18:33N 38°42' W 009°10'0 0.1
2015-Jan-25 17:33N 38°42' W 009°10'0 0.1
2015-Jan-25 16:33N 38°42' W 009°10'0 0.0
2015-Jan-25 15:33N 38°42' W 009°10'0 0.0
2015-Jan-25 14:32N 38°42' W 009°10'3 2.8
2015-Jan-25 13:33N 38°41' W 009°07'1 1.0
2015-Jan-25 12:33N 38°41' W 009°08'2 1.7
2015-Jan-25 11:33N 38°42' W 009°10'0 0.0
2015-Jan-25 10:31N 38°42' W 009°10'0 0.0
2015-Jan-25 09:33N 38°42' W 009°10'0 0.0
2015-Jan-25 08:33N 38°42' W 009°10'0 0.0
2015-Jan-25 07:33N 38°42' W 009°10'0 0.0
2015-Jan-25 06:33N 38°42' W 009°10'0 0.0
2015-Jan-25 05:33N 38°42' W 009°10'0 0.0
2015-Jan-25 04:30N 38°42' W 009°10'0 0.0
2015-Jan-25 03:33N 38°42' W 009°10'0 0.0
2015-Jan-25 02:32N 38°42' W 009°10'0 0.0
2015-Jan-25 01:33N 38°42' W 009°10'0 0.0
2015-Jan-25 00:33N 38°42' W 009°10'0 0.0
2015-Jan-24 23:32N 38°42' W 009°10'0 0.0
2015-Jan-24 22:31N 38°42' W 009°10'3 3.6
2015-Jan-24 21:32N 38°44' W 009°06'3 2.6
2015-Jan-24 20:34N 38°42' W 009°08'1 1.0
2015-Jan-24 19:28N 38°42' W 009°10'0 0.0
2015-Jan-24 18:34N 38°42' W 009°10'0 0.0
2015-Jan-24 17:33N 38°42' W 009°10'0 0.0
2015-Jan-24 16:33N 38°42' W 009°10'0 0.0
2015-Jan-24 15:34N 38°42' W 009°10'0 0.0
2015-Jan-24 14:33N 38°42' W 009°10'2 2.3
2015-Jan-24 13:32N 38°43' W 009°07'1 1.0
2015-Jan-24 12:33N 38°42' W 009°08'4 3.8
2015-Jan-24 11:34N 38°41' W 009°12'2 1.5
2015-Jan-24 10:32N 38°41' W 009°14'0 0.2
2015-Jan-24 09:32N 38°41' W 009°14'4 4.3
2015-Jan-24 08:33N 38°42' W 009°09'0 0.2
2015-Jan-24 07:33N 38°42' W 009°10'0 0.0
2015-Jan-24 06:31N 38°42' W 009°10'0 0.0
2015-Jan-24 05:33N 38°42' W 009°10'0 0.0
2015-Jan-24 04:32N 38°42' W 009°10'0 0.0
2015-Jan-24 03:33N 38°42' W 009°10'0 0.0
2015-Jan-24 02:32N 38°42' W 009°10'3 3.2
2015-Jan-24 01:33N 38°41' W 009°13'6 5.5
2015-Jan-24 00:29N 38°43' W 009°07'2 1.9
2015-Jan-23 23:33N 38°42' W 009°08'1 1.1
2015-Jan-23 22:31N 38°42' W 009°10'0 0.0
2015-Jan-23 21:19N 38°42' W 009°10'0 0.0
2015-Jan-23 20:33N 38°42' W 009°10'0 0.0
2015-Jan-23 19:29N 38°42' W 009°10'0 0.0
2015-Jan-23 18:32N 38°42' W 009°10'2 1.6
2015-Jan-23 17:33N 38°41' W 009°11'1 1.2
2015-Jan-23 16:33N 38°41' W 009°12'2 2.2
2015-Jan-23 15:33N 38°42' W 009°10'0 0.0
2015-Jan-23 14:32N 38°42' W 009°10'0 0.0
2015-Jan-23 13:33N 38°42' W 009°10'0 0.4
2015-Jan-23 12:30N 38°42' W 009°09'0 0.5
2015-Jan-23 11:33N 38°42' W 009°10'0 0.0
2015-Jan-23 10:33N 38°42' W 009°10'0 0.0
2015-Jan-23 09:33N 38°42' W 009°10'0 0.0
2015-Jan-23 08:33N 38°42' W 009°10'0 0.0
2015-Jan-23 07:33N 38°42' W 009°10'2 1.7
2015-Jan-23 06:33N 38°41' W 009°08'2 1.7
2015-Jan-23 05:33N 38°42' W 009°10'0 0.0
2015-Jan-23 04:33N 38°42' W 009°10'0 0.0
2015-Jan-23 03:31N 38°42' W 009°10'0 0.0
2015-Jan-23 02:33N 38°42' W 009°10'0 0.0
2015-Jan-23 01:33N 38°42' W 009°10'0 0.0
2015-Jan-23 00:33N 38°42' W 009°10'0 0.0
2015-Jan-22 23:30N 38°42' W 009°10'0 0.0
2015-Jan-22 22:33N 38°42' W 009°10'0 0.0
2015-Jan-22 21:32N 38°42' W 009°10'0 0.0
2015-Jan-22 20:30N 38°42' W 009°10'0 0.0
2015-Jan-22 19:33N 38°42' W 009°10'0 0.0
2015-Jan-22 18:33N 38°42' W 009°10'3 2.8
2015-Jan-22 17:33N 38°41' W 009°13'1 0.7
2015-Jan-22 16:33N 38°41' W 009°12'2 1.9
2015-Jan-22 15:24N 38°42' W 009°10'0 0.0
2015-Jan-22 14:33N 38°42' W 009°10'0 0.0
2015-Jan-22 13:30N 38°42' W 009°10'0 0.0
2015-Jan-22 12:33N 38°42' W 009°10'2 1.9
2015-Jan-22 11:32N 38°40' W 009°09'0 0.2
2015-Jan-22 10:33N 38°40' W 009°09'2 2.1
2015-Jan-22 09:33N 38°42' W 009°10'0 0.0
2015-Jan-22 08:33N 38°42' W 009°10'1 0.8
2015-Jan-22 07:33N 38°42' W 009°09'1 0.8
2015-Jan-22 06:31N 38°42' W 009°10'  

Dump ship's entire track history